sensor_id;sensor_type;location;lat;lon;timestamp;pressure;altitude;pressure_sealevel;temperature;humidity
75051;BME280;63628;47.656;11.310;2022-11-20T00:01:28;94271.63;;;7.55;82.08
75051;BME280;63628;47.656;11.310;2022-11-20T00:03:53;94277.25;;;7.58;81.44
75051;BME280;63628;47.656;11.310;2022-11-20T00:06:20;94278.50;;;7.56;81.83
75051;BME280;63628;47.656;11.310;2022-11-20T00:08:47;94302.66;;;7.64;81.30
75051;BME280;63628;47.656;11.310;2022-11-20T00:11:21;94301.53;;;7.60;81.58
75051;BME280;63628;47.656;11.310;2022-11-20T00:13:51;94301.28;;;7.62;81.64
75051;BME280;63628;47.656;11.310;2022-11-20T00:16:21;94289.72;;;7.63;81.19
75051;BME280;63628;47.656;11.310;2022-11-20T00:18:48;94298.66;;;7.62;81.85
75051;BME280;63628;47.656;11.310;2022-11-20T00:21:17;94306.56;;;7.62;81.38
75051;BME280;63628;47.656;11.310;2022-11-20T00:23:44;94308.63;;;7.60;81.76
75051;BME280;63628;47.656;11.310;2022-11-20T00:26:13;94313.84;;;7.48;80.98
75051;BME280;63628;47.656;11.310;2022-11-20T00:28:40;94301.78;;;7.29;79.59
75051;BME280;63628;47.656;11.310;2022-11-20T00:31:12;94312.16;;;7.54;81.23
75051;BME280;63628;47.656;11.310;2022-11-20T00:33:39;94303.31;;;7.48;81.42
75051;BME280;63628;47.656;11.310;2022-11-20T00:36:09;94318.56;;;7.58;81.72
75051;BME280;63628;47.656;11.310;2022-11-20T00:38:36;94312.38;;;7.52;81.44
75051;BME280;63628;47.656;11.310;2022-11-20T00:41:05;94322.59;;;7.60;81.61
75051;BME280;63628;47.656;11.310;2022-11-20T00:43:31;94313.63;;;7.50;81.48
75051;BME280;63628;47.656;11.310;2022-11-20T00:45:59;94323.16;;;7.62;81.35
75051;BME280;63628;47.656;11.310;2022-11-20T00:48:26;94327.28;;;7.58;81.37
75051;BME280;63628;47.656;11.310;2022-11-20T00:50:53;94325.31;;;7.54;81.50
75051;BME280;63628;47.656;11.310;2022-11-20T00:53:20;94315.47;;;7.49;81.35
75051;BME280;63628;47.656;11.310;2022-11-20T00:58:25;94327.25;;;7.47;81.95
75051;BME280;63628;47.656;11.310;2022-11-20T01:01:00;94334.03;;;7.54;81.71
75051;BME280;63628;47.656;11.310;2022-11-20T01:03:27;94340.09;;;7.55;81.77
75051;BME280;63628;47.656;11.310;2022-11-20T01:05:54;94328.06;;;7.59;81.45
75051;BME280;63628;47.656;11.310;2022-11-20T01:08:20;94340.88;;;7.55;81.68
75051;BME280;63628;47.656;11.310;2022-11-20T01:10:47;94327.38;;;7.52;81.20
75051;BME280;63628;47.656;11.310;2022-11-20T01:13:13;94346.28;;;7.60;81.36
75051;BME280;63628;47.656;11.310;2022-11-20T01:16:12;94350.63;;;7.55;81.65
75051;BME280;63628;47.656;11.310;2022-11-20T01:18:42;94352.31;;;7.49;81.51
75051;BME280;63628;47.656;11.310;2022-11-20T01:21:24;94347.84;;;7.50;81.39
75051;BME280;63628;47.656;11.310;2022-11-20T01:23:52;94349.47;;;7.51;81.38
75051;BME280;63628;47.656;11.310;2022-11-20T01:26:24;94350.03;;;7.53;81.84
75051;BME280;63628;47.656;11.310;2022-11-20T01:28:51;94344.91;;;7.28;79.42
75051;BME280;63628;47.656;11.310;2022-11-20T01:31:20;94335.59;;;7.44;81.86
75051;BME280;63628;47.656;11.310;2022-11-20T01:33:50;94329.53;;;7.43;81.96
75051;BME280;63628;47.656;11.310;2022-11-20T01:36:18;94329.53;;;7.43;81.74
75051;BME280;63628;47.656;11.310;2022-11-20T01:38:45;94340.88;;;7.55;81.38
75051;BME280;63628;47.656;11.310;2022-11-20T01:41:14;94331.56;;;7.41;80.83
75051;BME280;63628;47.656;11.310;2022-11-20T01:44:01;94340.19;;;7.48;81.75
75051;BME280;63628;47.656;11.310;2022-11-20T01:46:28;94334.91;;;7.48;81.58
75051;BME280;63628;47.656;11.310;2022-11-20T01:49:02;94328.63;;;7.49;81.90
75051;BME280;63628;47.656;11.310;2022-11-20T01:51:35;94330.22;;;7.50;81.51
75051;BME280;63628;47.656;11.310;2022-11-20T01:54:08;94334.25;;;7.53;81.21
75051;BME280;63628;47.656;11.310;2022-11-20T01:56:41;94331.38;;;7.54;81.19
75051;BME280;63628;47.656;11.310;2022-11-20T01:59:10;94333.22;;;7.54;81.22
75051;BME280;63628;47.656;11.310;2022-11-20T02:01:38;94335.72;;;7.49;81.77
75051;BME280;63628;47.656;11.310;2022-11-20T02:04:07;94335.16;;;7.47;81.63
75051;BME280;63628;47.656;11.310;2022-11-20T02:06:50;94335.50;;;7.50;81.42
75051;BME280;63628;47.656;11.310;2022-11-20T02:09:19;94322.06;;;7.40;81.71
75051;BME280;63628;47.656;11.310;2022-11-20T02:11:46;94334.13;;;7.48;81.97
75051;BME280;63628;47.656;11.310;2022-11-20T02:14:14;94342.56;;;7.38;77.43
75051;BME280;63628;47.656;11.310;2022-11-20T02:16:45;94350.72;;;7.48;81.28
75051;BME280;63628;47.656;11.310;2022-11-20T02:19:26;94343.16;;;7.52;81.16
75051;BME280;63628;47.656;11.310;2022-11-20T02:24:22;94344.66;;;7.48;81.56
75051;BME280;63628;47.656;11.310;2022-11-20T02:27:09;94348.31;;;7.47;81.26
75051;BME280;63628;47.656;11.310;2022-11-20T02:29:44;94347.84;;;7.50;81.38
75051;BME280;63628;47.656;11.310;2022-11-20T02:32:29;94342.59;;;7.50;80.69
75051;BME280;63628;47.656;11.310;2022-11-20T02:34:56;94336.88;;;7.53;80.65
75051;BME280;63628;47.656;11.310;2022-11-20T02:37:27;94342.34;;;7.40;81.56
75051;BME280;63628;47.656;11.310;2022-11-20T02:39:56;94342.03;;;7.18;75.53
75051;BME280;63628;47.656;11.310;2022-11-20T02:42:22;94343.00;;;7.35;81.81
75051;BME280;63628;47.656;11.310;2022-11-20T02:44:49;94343.03;;;7.47;80.99
75051;BME280;63628;47.656;11.310;2022-11-20T02:47:15;94343.03;;;7.47;81.08
75051;BME280;63628;47.656;11.310;2022-11-20T02:49:41;94331.56;;;7.41;81.07
75051;BME280;63628;47.656;11.310;2022-11-20T02:52:08;94342.09;;;7.41;81.75
75051;BME280;63628;47.656;11.310;2022-11-20T02:54:34;94328.16;;;7.41;81.29
75051;BME280;63628;47.656;11.310;2022-11-20T02:57:00;94347.16;;;7.43;81.14
75051;BME280;63628;47.656;11.310;2022-11-20T02:59:27;94342.09;;;7.41;81.68
75051;BME280;63628;47.656;11.310;2022-11-20T03:01:53;94338.66;;;7.41;81.59
75051;BME280;63628;47.656;11.310;2022-11-20T03:04:20;94331.91;;;7.33;81.75
75051;BME280;63628;47.656;11.310;2022-11-20T03:06:46;94338.91;;;7.39;81.65
75051;BME280;63628;47.656;11.310;2022-11-20T03:09:13;94336.25;;;7.39;81.44
75051;BME280;63628;47.656;11.310;2022-11-20T03:11:39;94322.44;;;7.44;81.11
75051;BME280;63628;47.656;11.310;2022-11-20T03:14:05;94334.69;;;7.50;81.13
75051;BME280;63628;47.656;11.310;2022-11-20T03:16:32;94326.84;;;7.31;81.61
75051;BME280;63628;47.656;11.310;2022-11-20T03:18:59;94344.97;;;7.40;81.30
75051;BME280;63628;47.656;11.310;2022-11-20T03:21:25;94324.56;;;7.35;81.59
75051;BME280;63628;47.656;11.310;2022-11-20T03:23:53;94336.16;;;7.46;81.29
75051;BME280;63628;47.656;11.310;2022-11-20T03:26:23;94326.06;;;7.31;81.61
75051;BME280;63628;47.656;11.310;2022-11-20T03:28:51;94339.78;;;7.33;80.03
75051;BME280;63628;47.656;11.310;2022-11-20T03:31:20;94330.31;;;7.44;81.12
75051;BME280;63628;47.656;11.310;2022-11-20T03:33:47;94334.88;;;7.37;81.62
75051;BME280;63628;47.656;11.310;2022-11-20T03:36:16;94341.75;;;7.38;81.92
75051;BME280;63628;47.656;11.310;2022-11-20T03:38:43;94343.34;;;7.39;81.72
75051;BME280;63628;47.656;11.310;2022-11-20T03:41:21;94337.66;;;7.42;81.21
75051;BME280;63628;47.656;11.310;2022-11-20T03:44:02;94341.97;;;7.36;81.50
75051;BME280;63628;47.656;11.310;2022-11-20T03:46:29;94343.00;;;7.35;81.80
75051;BME280;63628;47.656;11.310;2022-11-20T03:48:56;94343.72;;;7.42;81.13
75051;BME280;63628;47.656;11.310;2022-11-20T03:51:24;94340.72;;;7.39;81.86
75051;BME280;63628;47.656;11.310;2022-11-20T03:53:54;94342.78;;;7.37;81.65
75051;BME280;63628;47.656;11.310;2022-11-20T03:56:29;94348.25;;;7.35;81.64
75051;BME280;63628;47.656;11.310;2022-11-20T03:58:56;94346.44;;;7.36;81.45
75051;BME280;63628;47.656;11.310;2022-11-20T04:01:28;94328.31;;;7.27;81.81
75051;BME280;63628;47.656;11.310;2022-11-20T04:03:56;94347.69;;;7.33;81.96
75051;BME280;63628;47.656;11.310;2022-11-20T04:06:25;94348.03;;;7.37;81.65
75051;BME280;63628;47.656;11.310;2022-11-20T04:08:56;94350.06;;;6.86;78.37
75051;BME280;63628;47.656;11.310;2022-11-20T04:11:30;94359.69;;;7.29;82.14
75051;BME280;63628;47.656;11.310;2022-11-20T04:13:59;94360.41;;;7.36;81.64
75051;BME280;63628;47.656;11.310;2022-11-20T04:16:29;94363.84;;;7.37;81.35
75051;BME280;63628;47.656;11.310;2022-11-20T04:18:57;94359.00;;;5.67;79.75
75051;BME280;63628;47.656;11.310;2022-11-20T04:21:25;94360.50;;;6.93;82.98
75051;BME280;63628;47.656;11.310;2022-11-20T04:23:52;94359.09;;;7.27;82.19
75051;BME280;63628;47.656;11.310;2022-11-20T04:26:20;94360.25;;;7.31;81.96
75051;BME280;63628;47.656;11.310;2022-11-20T04:28:48;94357.63;;;7.31;81.96
75051;BME280;63628;47.656;11.310;2022-11-20T04:31:17;94353.19;;;7.31;81.49
75051;BME280;63628;47.656;11.310;2022-11-20T04:33:44;94357.41;;;7.32;82.06
75051;BME280;63628;47.656;11.310;2022-11-20T04:36:20;94358.44;;;7.31;81.68
75051;BME280;63628;47.656;11.310;2022-11-20T04:38:50;94356.72;;;6.52;73.89
75051;BME280;63628;47.656;11.310;2022-11-20T04:41:24;94349.19;;;5.18;78.25
75051;BME280;63628;47.656;11.310;2022-11-20T04:43:53;94357.91;;;6.75;83.36
75051;BME280;63628;47.656;11.310;2022-11-20T04:46:26;94351.00;;;7.10;81.84
75051;BME280;63628;47.656;11.310;2022-11-20T04:48:53;94339.81;;;7.15;81.59
75051;BME280;63628;47.656;11.310;2022-11-20T04:51:19;94345.31;;;6.95;77.26
75051;BME280;63628;47.656;11.310;2022-11-20T04:53:46;94339.41;;;6.81;77.42
75051;BME280;63628;47.656;11.310;2022-11-20T04:56:13;94352.38;;;7.13;82.47
75051;BME280;63628;47.656;11.310;2022-11-20T04:58:39;94347.78;;;7.08;81.80
75051;BME280;63628;47.656;11.310;2022-11-20T05:01:09;94348.66;;;7.20;82.01
75051;BME280;63628;47.656;11.310;2022-11-20T05:03:36;94347.63;;;7.21;81.77
75051;BME280;63628;47.656;11.310;2022-11-20T05:06:09;94343.63;;;7.19;81.78
75051;BME280;63628;47.656;11.310;2022-11-20T05:08:36;94350.63;;;7.25;81.71
75051;BME280;63628;47.656;11.310;2022-11-20T05:11:11;94343.03;;;7.17;81.65
75051;BME280;63628;47.656;11.310;2022-11-20T05:13:39;94356.69;;;7.25;81.73
75051;BME280;63628;47.656;11.310;2022-11-20T05:16:08;94350.84;;;7.23;81.95
75051;BME280;63628;47.656;11.310;2022-11-20T05:18:36;94344.72;;;6.93;79.03
75051;BME280;63628;47.656;11.310;2022-11-20T05:21:03;94359.78;;;7.22;81.74
75051;BME280;63628;47.656;11.310;2022-11-20T05:23:31;94356.47;;;7.27;81.44
75051;BME280;63628;47.656;11.310;2022-11-20T05:25:58;94365.72;;;6.81;77.12
75051;BME280;63628;47.656;11.310;2022-11-20T05:28:26;94364.31;;;7.15;81.78
75051;BME280;63628;47.656;11.310;2022-11-20T05:30:52;94368.69;;;7.21;81.58
75051;BME280;63628;47.656;11.310;2022-11-20T05:33:19;94352.53;;;5.38;80.75
75051;BME280;63628;47.656;11.310;2022-11-20T05:35:45;94364.47;;;6.84;83.11
75051;BME280;63628;47.656;11.310;2022-11-20T05:38:12;94364.72;;;7.12;81.92
75051;BME280;63628;47.656;11.310;2022-11-20T05:40:38;94364.22;;;7.04;79.02
75051;BME280;63628;47.656;11.310;2022-11-20T05:43:05;94365.13;;;7.16;81.98
75051;BME280;63628;47.656;11.310;2022-11-20T05:45:31;94371.31;;;7.21;81.54
75051;BME280;63628;47.656;11.310;2022-11-20T05:47:59;94371.31;;;7.21;81.31
75051;BME280;63628;47.656;11.310;2022-11-20T05:50:29;94377.16;;;7.23;81.38
75051;BME280;63628;47.656;11.310;2022-11-20T05:52:58;94373.72;;;7.23;81.36
75051;BME280;63628;47.656;11.310;2022-11-20T05:55:26;94379.13;;;7.10;81.88
75051;BME280;63628;47.656;11.310;2022-11-20T05:57:53;94379.66;;;7.18;81.86
75051;BME280;63628;47.656;11.310;2022-11-20T06:00:21;94383.03;;;6.89;82.19
75051;BME280;63628;47.656;11.310;2022-11-20T06:02:47;94366.13;;;6.96;82.25
75051;BME280;63628;47.656;11.310;2022-11-20T06:05:14;94381.91;;;7.15;81.84
75051;BME280;63628;47.656;11.310;2022-11-20T06:07:40;94384.34;;;7.16;81.76
75051;BME280;63628;47.656;11.310;2022-11-20T06:10:07;94388.72;;;6.43;75.97
75051;BME280;63628;47.656;11.310;2022-11-20T06:12:33;94376.50;;;7.10;82.06
75051;BME280;63628;47.656;11.310;2022-11-20T06:15:00;94378.84;;;7.18;81.83
75051;BME280;63628;47.656;11.310;2022-11-20T06:17:27;94370.88;;;7.06;81.51
75051;BME280;63628;47.656;11.310;2022-11-20T06:19:53;94379.28;;;7.15;81.33
75051;BME280;63628;47.656;11.310;2022-11-20T06:22:19;94375.25;;;5.89;78.83
75051;BME280;63628;47.656;11.310;2022-11-20T06:24:47;94376.75;;;6.90;82.62
75051;BME280;63628;47.656;11.310;2022-11-20T06:27:13;94369.84;;;7.07;81.72
75051;BME280;63628;47.656;11.310;2022-11-20T06:29:40;94382.72;;;7.15;81.67
75051;BME280;63628;47.656;11.310;2022-11-20T06:32:06;94389.06;;;6.28;81.49
75051;BME280;63628;47.656;11.310;2022-11-20T06:34:32;94390.19;;;7.00;82.03
75051;BME280;63628;47.656;11.310;2022-11-20T06:36:59;94383.44;;;6.24;74.87
75051;BME280;63628;47.656;11.310;2022-11-20T06:39:25;94396.97;;;6.89;81.95
75051;BME280;63628;47.656;11.310;2022-11-20T06:41:52;94392.94;;;7.05;81.77
75051;BME280;63628;47.656;11.310;2022-11-20T06:44:24;94403.41;;;7.12;81.43
75051;BME280;63628;47.656;11.310;2022-11-20T06:46:50;94399.50;;;7.14;81.63
75051;BME280;63628;47.656;11.310;2022-11-20T06:49:17;94391.94;;;7.06;81.44
75051;BME280;63628;47.656;11.310;2022-11-20T06:51:43;94398.13;;;7.12;81.50
75051;BME280;63628;47.656;11.310;2022-11-20T06:54:09;94404.84;;;7.08;81.50
75051;BME280;63628;47.656;11.310;2022-11-20T06:56:36;94406.47;;;7.09;81.49
75051;BME280;63628;47.656;11.310;2022-11-20T06:59:06;94414.94;;;7.11;81.20
75051;BME280;63628;47.656;11.310;2022-11-20T07:01:33;94414.72;;;7.12;81.27
75051;BME280;63628;47.656;11.310;2022-11-20T07:04:00;94420.53;;;6.59;74.65
75051;BME280;63628;47.656;11.310;2022-11-20T07:06:26;94417.88;;;6.16;75.10
75051;BME280;63628;47.656;11.310;2022-11-20T07:08:52;94416.09;;;6.60;82.00
75051;BME280;63628;47.656;11.310;2022-11-20T07:11:19;94419.09;;;7.00;82.21
75051;BME280;63628;47.656;11.310;2022-11-20T07:13:45;94416.53;;;6.57;77.32
75051;BME280;63628;47.656;11.310;2022-11-20T07:16:12;94419.56;;;6.97;81.70
75051;BME280;63628;47.656;11.310;2022-11-20T07:18:38;94414.88;;;6.99;81.37
75051;BME280;63628;47.656;11.310;2022-11-20T07:21:09;94423.41;;;7.13;81.03
75051;BME280;63628;47.656;11.310;2022-11-20T07:23:36;94428.31;;;7.09;81.33
75051;BME280;63628;47.656;11.310;2022-11-20T07:26:07;94425.91;;;7.08;81.45
75051;BME280;63628;47.656;11.310;2022-11-20T07:28:35;94433.72;;;7.14;81.31
75051;BME280;63628;47.656;11.310;2022-11-20T07:31:02;94434.38;;;7.10;81.23
75051;BME280;63628;47.656;11.310;2022-11-20T07:33:29;94432.63;;;7.04;80.14
75051;BME280;63628;47.656;11.310;2022-11-20T07:35:55;94441.09;;;7.06;81.36
75051;BME280;63628;47.656;11.310;2022-11-20T07:38:21;94431.16;;;7.08;81.03
75051;BME280;63628;47.656;11.310;2022-11-20T07:40:48;94432.19;;;7.07;81.21
75051;BME280;63628;47.656;11.310;2022-11-20T07:43:15;94428.75;;;7.06;81.32
75051;BME280;63628;47.656;11.310;2022-11-20T07:45:41;94429.78;;;7.05;81.57
75051;BME280;63628;47.656;11.310;2022-11-20T07:48:07;94439.06;;;7.08;81.24
75051;BME280;63628;47.656;11.310;2022-11-20T07:50:34;94417.88;;;7.03;81.33
75051;BME280;63628;47.656;11.310;2022-11-20T07:53:02;94433.78;;;7.08;81.26
75051;BME280;63628;47.656;11.310;2022-11-20T07:55:29;94429.16;;;6.66;80.98
75051;BME280;63628;47.656;11.310;2022-11-20T07:57:56;94412.31;;;6.92;81.37
75051;BME280;63628;47.656;11.310;2022-11-20T08:00:23;94433.78;;;7.08;81.47
75051;BME280;63628;47.656;11.310;2022-11-20T08:02:50;94422.19;;;6.97;79.32
75051;BME280;63628;47.656;11.310;2022-11-20T08:05:16;94428.78;;;7.24;79.73
75051;BME280;63628;47.656;11.310;2022-11-20T08:07:43;94425.81;;;7.51;77.57
75051;BME280;63628;47.656;11.310;2022-11-20T08:10:12;94417.88;;;7.21;80.31
75051;BME280;63628;47.656;11.310;2022-11-20T08:12:47;94417.09;;;7.20;80.52
75051;BME280;63628;47.656;11.310;2022-11-20T08:15:32;94417.94;;;7.14;80.61
75051;BME280;63628;47.656;11.310;2022-11-20T08:18:03;94421.09;;;8.54;78.28
75051;BME280;63628;47.656;11.310;2022-11-20T08:20:50;94406.75;;;8.74;75.76
75051;BME280;63628;47.656;11.310;2022-11-20T08:23:16;94420.84;;;7.43;79.79
75051;BME280;63628;47.656;11.310;2022-11-20T08:25:42;94412.94;;;9.14;77.36
75051;BME280;63628;47.656;11.310;2022-11-20T08:28:09;94413.03;;;10.84;62.68
75051;BME280;63628;47.656;11.310;2022-11-20T08:30:46;94413.53;;;9.85;61.34
75051;BME280;63628;47.656;11.310;2022-11-20T08:33:13;94413.25;;;8.36;71.79
75051;BME280;63628;47.656;11.310;2022-11-20T08:35:39;94419.91;;;7.85;75.05
75051;BME280;63628;47.656;11.310;2022-11-20T08:38:08;94422.00;;;7.77;77.57
75051;BME280;63628;47.656;11.310;2022-11-20T08:40:34;94421.00;;;7.48;79.36
75051;BME280;63628;47.656;11.310;2022-11-20T08:43:01;94414.06;;;7.35;80.52
75051;BME280;63628;47.656;11.310;2022-11-20T08:45:27;94418.53;;;7.64;79.41
75051;BME280;63628;47.656;11.310;2022-11-20T08:48:01;94405.59;;;7.63;78.33
75051;BME280;63628;47.656;11.310;2022-11-20T08:50:28;94417.13;;;7.80;78.07
75051;BME280;63628;47.656;11.310;2022-11-20T08:52:54;94416.47;;;7.67;70.38
75051;BME280;63628;47.656;11.310;2022-11-20T08:55:21;94413.19;;;7.71;76.51
75051;BME280;63628;47.656;11.310;2022-11-20T08:57:47;94420.06;;;7.42;79.80
75051;BME280;63628;47.656;11.310;2022-11-20T09:00:16;94416.47;;;7.37;80.40
75051;BME280;63628;47.656;11.310;2022-11-20T09:02:43;94403.81;;;11.68;58.03
75051;BME280;63628;47.656;11.310;2022-11-20T09:05:09;94405.38;;;8.83;66.61
75051;BME280;63628;47.656;11.310;2022-11-20T09:07:35;94411.81;;;8.10;66.31
75051;BME280;63628;47.656;11.310;2022-11-20T09:10:02;94405.63;;;9.73;60.52
75051;BME280;63628;47.656;11.310;2022-11-20T09:12:49;94403.06;;;10.52;59.96
75051;BME280;63628;47.656;11.310;2022-11-20T09:15:18;94409.47;;;12.58;53.12
75051;BME280;63628;47.656;11.310;2022-11-20T09:17:58;94408.16;;;13.35;51.57
75051;BME280;63628;47.656;11.310;2022-11-20T09:20:26;94404.66;;;10.53;60.55
75051;BME280;63628;47.656;11.310;2022-11-20T09:22:55;94419.91;;;8.39;72.66
75051;BME280;63628;47.656;11.310;2022-11-20T09:25:22;94407.13;;;10.60;59.17
75051;BME280;63628;47.656;11.310;2022-11-20T09:27:55;94414.78;;;8.02;75.90
75051;BME280;63628;47.656;11.310;2022-11-20T09:30:22;94410.22;;;7.79;77.97
75051;BME280;63628;47.656;11.310;2022-11-20T09:32:48;94388.34;;;8.32;63.13
75051;BME280;63628;47.656;11.310;2022-11-20T09:35:14;94404.59;;;8.06;60.30
75051;BME280;63628;47.656;11.310;2022-11-20T09:37:41;94398.41;;;9.69;61.27
75051;BME280;63628;47.656;11.310;2022-11-20T09:40:19;94394.88;;;8.18;73.85
75051;BME280;63628;47.656;11.310;2022-11-20T09:42:55;94396.88;;;8.34;73.01
75051;BME280;63628;47.656;11.310;2022-11-20T09:45:39;94375.31;;;9.76;51.82
75051;BME280;63628;47.656;11.310;2022-11-20T09:48:29;94385.63;;;9.49;51.66
75051;BME280;63628;47.656;11.310;2022-11-20T09:51:20;94370.59;;;10.57;48.06
75051;BME280;63628;47.656;11.310;2022-11-20T09:54:09;94385.03;;;9.87;55.10
75051;BME280;63628;47.656;11.310;2022-11-20T09:56:45;94368.66;;;10.35;57.20
75051;BME280;63628;47.656;11.310;2022-11-20T09:59:26;94370.75;;;9.31;62.78
75051;BME280;63628;47.656;11.310;2022-11-20T10:01:55;94376.66;;;10.24;53.95
75051;BME280;63628;47.656;11.310;2022-11-20T10:04:22;94375.50;;;9.86;62.81
75051;BME280;63628;47.656;11.310;2022-11-20T10:09:55;94362.75;;;12.57;53.33
75051;BME280;63628;47.656;11.310;2022-11-20T10:12:31;94372.28;;;9.56;66.16
75051;BME280;63628;47.656;11.310;2022-11-20T10:15:29;94355.47;;;11.34;58.85
75051;BME280;63628;47.656;11.310;2022-11-20T10:18:01;94349.28;;;10.85;55.97
75051;BME280;63628;47.656;11.310;2022-11-20T10:21:03;94358.72;;;8.60;73.07
75051;BME280;63628;47.656;11.310;2022-11-20T10:26:42;94338.97;;;14.33;47.09
75051;BME280;63628;47.656;11.310;2022-11-20T10:29:13;94335.94;;;15.20;43.86
75051;BME280;63628;47.656;11.310;2022-11-20T10:31:44;94346.41;;;9.86;57.10
75051;BME280;63628;47.656;11.310;2022-11-20T10:34:21;94337.34;;;13.13;51.96
75051;BME280;63628;47.656;11.310;2022-11-20T10:36:58;94324.38;;;15.40;46.76
75051;BME280;63628;47.656;11.310;2022-11-20T10:39:37;94345.91;;;11.33;60.71
75051;BME280;63628;47.656;11.310;2022-11-20T10:42:18;94332.06;;;13.18;54.98
75051;BME280;63628;47.656;11.310;2022-11-20T10:44:53;94348.09;;;10.76;63.37
75051;BME280;63628;47.656;11.310;2022-11-20T10:47:31;94343.09;;;9.34;70.27
75051;BME280;63628;47.656;11.310;2022-11-20T10:50:03;94336.78;;;10.80;65.57
75051;BME280;63628;47.656;11.310;2022-11-20T10:52:40;94326.19;;;10.80;58.02
75051;BME280;63628;47.656;11.310;2022-11-20T10:55:33;94343.03;;;9.17;71.56
75051;BME280;63628;47.656;11.310;2022-11-20T10:58:38;94329.34;;;13.81;50.17
75051;BME280;63628;47.656;11.310;2022-11-20T11:01:21;94347.84;;;9.48;71.02
75051;BME280;63628;47.656;11.310;2022-11-20T11:03:51;94336.03;;;11.51;62.30
75051;BME280;63628;47.656;11.310;2022-11-20T11:06:29;94319.56;;;11.97;59.63
75051;BME280;63628;47.656;11.310;2022-11-20T11:09:02;94336.56;;;10.65;61.23
75051;BME280;63628;47.656;11.310;2022-11-20T11:11:32;94337.38;;;10.15;65.39
75051;BME280;63628;47.656;11.310;2022-11-20T11:14:10;94335.38;;;9.89;64.42
75051;BME280;63628;47.656;11.310;2022-11-20T11:16:50;94344.06;;;9.16;58.25
75051;BME280;63628;47.656;11.310;2022-11-20T11:19:17;94335.88;;;9.74;63.11
75051;BME280;63628;47.656;11.310;2022-11-20T11:21:48;94343.28;;;9.44;67.69
75051;BME280;63628;47.656;11.310;2022-11-20T11:24:23;94336.00;;;9.51;68.76
75051;BME280;63628;47.656;11.310;2022-11-20T11:27:13;94336.78;;;9.80;67.37
75051;BME280;63628;47.656;11.310;2022-11-20T11:29:43;94322.41;;;10.55;60.17
75051;BME280;63628;47.656;11.310;2022-11-20T11:32:16;94301.50;;;11.19;56.69
75051;BME280;63628;47.656;11.310;2022-11-20T11:34:44;94325.50;;;9.84;66.18
75051;BME280;63628;47.656;11.310;2022-11-20T11:37:16;94326.00;;;9.98;62.89
75051;BME280;63628;47.656;11.310;2022-11-20T11:39:45;94320.09;;;10.41;60.08
75051;BME280;63628;47.656;11.310;2022-11-20T11:42:29;94321.19;;;9.95;57.39
75051;BME280;63628;47.656;11.310;2022-11-20T11:44:58;94312.38;;;9.16;66.13
75051;BME280;63628;47.656;11.310;2022-11-20T11:47:45;94316.19;;;9.37;57.32
75051;BME280;63628;47.656;11.310;2022-11-20T11:50:20;94320.13;;;9.34;64.28
75051;BME280;63628;47.656;11.310;2022-11-20T11:55:54;94301.25;;;9.14;56.82
75051;BME280;63628;47.656;11.310;2022-11-20T11:58:33;94297.50;;;8.98;56.35
75051;BME280;63628;47.656;11.310;2022-11-20T12:03:55;94311.59;;;9.04;63.33
75051;BME280;63628;47.656;11.310;2022-11-20T12:06:27;94307.72;;;8.95;69.15
75051;BME280;63628;47.656;11.310;2022-11-20T12:09:02;94305.56;;;8.92;57.57
75051;BME280;63628;47.656;11.310;2022-11-20T12:11:47;94297.47;;;8.70;72.71
75051;BME280;63628;47.656;11.310;2022-11-20T12:14:22;94304.28;;;8.94;64.62
75051;BME280;63628;47.656;11.310;2022-11-20T12:16:53;94303.09;;;8.73;75.09
75051;BME280;63628;47.656;11.310;2022-11-20T12:19:21;94300.44;;;8.73;58.99
75051;BME280;63628;47.656;11.310;2022-11-20T12:25:08;94276.59;;;8.68;56.16
75051;BME280;63628;47.656;11.310;2022-11-20T12:30:11;94265.13;;;9.03;56.44
75051;BME280;63628;47.656;11.310;2022-11-20T12:35:42;94264.78;;;8.71;54.80
75051;BME280;63628;47.656;11.310;2022-11-20T12:38:23;94270.66;;;8.61;66.17
75051;BME280;63628;47.656;11.310;2022-11-20T12:47:24;94268.34;;;8.65;55.99
75051;BME280;63628;47.656;11.310;2022-11-20T12:50:12;94267.22;;;8.61;74.04
75051;BME280;63628;47.656;11.310;2022-11-20T12:52:51;94255.63;;;8.62;57.32
75051;BME280;63628;47.656;11.310;2022-11-20T12:57:56;94262.97;;;8.60;64.88
75051;BME280;63628;47.656;11.310;2022-11-20T13:00:24;94254.81;;;8.61;72.51
75051;BME280;63628;47.656;11.310;2022-11-20T13:06:17;94248.56;;;8.50;60.58
75051;BME280;63628;47.656;11.310;2022-11-20T13:08:52;94242.09;;;8.58;61.81
75051;BME280;63628;47.656;11.310;2022-11-20T13:11:27;94245.44;;;8.53;54.23
75051;BME280;63628;47.656;11.310;2022-11-20T13:16:37;94248.72;;;8.72;53.92
75051;BME280;63628;47.656;11.310;2022-11-20T13:19:05;94240.94;;;8.66;68.76
75051;BME280;63628;47.656;11.310;2022-11-20T13:21:41;94242.06;;;8.70;48.69
75051;BME280;63628;47.656;11.310;2022-11-20T13:24:23;94239.25;;;8.60;71.42
75051;BME280;63628;47.656;11.310;2022-11-20T13:29:36;94215.97;;;8.45;49.26
75051;BME280;63628;47.656;11.310;2022-11-20T13:32:05;94229.63;;;8.42;60.71
75051;BME280;63628;47.656;11.310;2022-11-20T13:34:34;94225.72;;;8.56;70.79
75051;BME280;63628;47.656;11.310;2022-11-20T13:37:02;94225.34;;;8.64;70.22
75051;BME280;63628;47.656;11.310;2022-11-20T13:39:36;94217.00;;;8.55;71.66
75051;BME280;63628;47.656;11.310;2022-11-20T13:42:21;94224.47;;;8.47;70.83
75051;BME280;63628;47.656;11.310;2022-11-20T13:45:01;94213.94;;;8.23;59.83
75051;BME280;63628;47.656;11.310;2022-11-20T13:47:28;94223.31;;;8.43;71.05
75051;BME280;63628;47.656;11.310;2022-11-20T13:49:57;94216.69;;;8.17;55.41
75051;BME280;63628;47.656;11.310;2022-11-20T13:52:50;94206.41;;;8.04;61.41
75051;BME280;63628;47.656;11.310;2022-11-20T14:00:58;94212.84;;;7.84;54.58
75051;BME280;63628;47.656;11.310;2022-11-20T14:03:30;94210.84;;;8.26;69.43
75051;BME280;63628;47.656;11.310;2022-11-20T14:06:30;94219.22;;;8.12;58.23
75051;BME280;63628;47.656;11.310;2022-11-20T14:08:58;94213.25;;;8.40;73.42